sensor_id;sensor_type;location;lat;lon;timestamp;pressure;altitude;pressure_sealevel;temperature;humidity
26697;BME280;14312;52.614;13.496;2023-03-04T00:00:46;101121.78;;;5.99;63.08
26697;BME280;14312;52.614;13.496;2023-03-04T00:03:32;101113.25;;;5.97;63.08
26697;BME280;14312;52.614;13.496;2023-03-04T00:06:18;101114.84;;;5.91;63.13
26697;BME280;14312;52.614;13.496;2023-03-04T00:09:04;101107.47;;;5.86;63.55
26697;BME280;14312;52.614;13.496;2023-03-04T00:11:50;101098.91;;;5.84;63.66
26697;BME280;14312;52.614;13.496;2023-03-04T00:14:36;101104.81;;;5.80;64.00
26697;BME280;14312;52.614;13.496;2023-03-04T00:17:22;101107.63;;;5.78;63.84
26697;BME280;14312;52.614;13.496;2023-03-04T00:20:09;101114.75;;;5.78;64.07
26697;BME280;14312;52.614;13.496;2023-03-04T00:22:55;101110.69;;;5.75;64.22
26697;BME280;14312;52.614;13.496;2023-03-04T00:25:41;101110.69;;;5.75;64.14
26697;BME280;14312;52.614;13.496;2023-03-04T00:28:27;101108.84;;;5.76;64.40
26697;BME280;14312;52.614;13.496;2023-03-04T00:31:13;101099.06;;;5.76;64.48
26697;BME280;14312;52.614;13.496;2023-03-04T00:33:59;101098.06;;;5.77;64.62
26697;BME280;14312;52.614;13.496;2023-03-04T00:36:45;101096.88;;;5.80;64.72
26697;BME280;14312;52.614;13.496;2023-03-04T00:39:31;101102.97;;;5.80;64.69
26697;BME280;14312;52.614;13.496;2023-03-04T00:42:17;101094.03;;;5.81;64.84
26697;BME280;14312;52.614;13.496;2023-03-04T00:45:04;101100.97;;;5.82;64.67
26697;BME280;14312;52.614;13.496;2023-03-04T00:47:50;101095.25;;;5.85;64.67
26697;BME280;14312;52.614;13.496;2023-03-04T00:50:36;101090.63;;;5.87;64.95
26697;BME280;14312;52.614;13.496;2023-03-04T00:53:22;101094.50;;;5.92;64.62
26697;BME280;14312;52.614;13.496;2023-03-04T00:56:08;101090.84;;;5.93;64.68
26697;BME280;14312;52.614;13.496;2023-03-04T00:58:54;101089.66;;;5.95;64.64
26697;BME280;14312;52.614;13.496;2023-03-04T01:01:40;101086.81;;;5.97;64.53
26697;BME280;14312;52.614;13.496;2023-03-04T01:04:26;101085.75;;;5.98;64.71
26697;BME280;14312;52.614;13.496;2023-03-04T01:07:12;101078.47;;;6.00;64.63
26697;BME280;14312;52.614;13.496;2023-03-04T01:09:58;101070.13;;;6.03;64.74
26697;BME280;14312;52.614;13.496;2023-03-04T01:12:44;101074.19;;;6.05;64.30
26697;BME280;14312;52.614;13.496;2023-03-04T01:15:30;101066.25;;;6.05;64.49
26697;BME280;14312;52.614;13.496;2023-03-04T01:18:16;101077.47;;;6.07;64.55
26697;BME280;14312;52.614;13.496;2023-03-04T01:21:02;101064.03;;;6.09;64.46
26697;BME280;14312;52.614;13.496;2023-03-04T01:23:48;101060.38;;;6.10;64.77
26697;BME280;14312;52.614;13.496;2023-03-04T01:26:34;101060.38;;;6.10;64.61
26697;BME280;14312;52.614;13.496;2023-03-04T01:29:20;101058.34;;;6.12;64.35
26697;BME280;14312;52.614;13.496;2023-03-04T01:32:06;101056.31;;;6.14;64.27
26697;BME280;14312;52.614;13.496;2023-03-04T01:34:52;101057.94;;;6.15;64.57
26697;BME280;14312;52.614;13.496;2023-03-04T01:37:38;101053.28;;;6.17;64.22
26697;BME280;14312;52.614;13.496;2023-03-04T01:40:24;101055.94;;;6.17;64.36
26697;BME280;14312;52.614;13.496;2023-03-04T01:43:16;101062.44;;;6.21;64.38
26697;BME280;14312;52.614;13.496;2023-03-04T01:46:05;101044.53;;;6.23;64.30
26697;BME280;14312;52.614;13.496;2023-03-04T01:48:51;101047.00;;;6.24;64.25
26697;BME280;14312;52.614;13.496;2023-03-04T01:51:37;101045.16;;;6.25;64.53
26697;BME280;14312;52.614;13.496;2023-03-04T01:54:23;101044.75;;;6.28;64.21
26697;BME280;14312;52.614;13.496;2023-03-04T01:57:18;101049.03;;;6.29;64.57
26697;BME280;14312;52.614;13.496;2023-03-04T02:03:06;101040.69;;;6.32;64.33
26697;BME280;14312;52.614;13.496;2023-03-04T02:05:54;101026.41;;;6.33;64.31
26697;BME280;14312;52.614;13.496;2023-03-04T02:08:40;101028.69;;;6.36;64.52
26697;BME280;14312;52.614;13.496;2023-03-04T02:11:26;101030.09;;;6.39;64.17
26697;BME280;14312;52.614;13.496;2023-03-04T02:14:14;101026.22;;;6.41;64.49
26697;BME280;14312;52.614;13.496;2023-03-04T02:17:00;101019.72;;;6.44;64.41
26697;BME280;14312;52.614;13.496;2023-03-04T02:19:52;101013.22;;;6.46;64.42
26697;BME280;14312;52.614;13.496;2023-03-04T02:22:48;101012.78;;;6.49;64.56
26697;BME280;14312;52.614;13.496;2023-03-04T02:25:42;101017.69;;;6.52;64.58
26697;BME280;14312;52.614;13.496;2023-03-04T02:28:29;101007.50;;;6.56;64.55
26697;BME280;14312;52.614;13.496;2023-03-04T02:31:29;100999.34;;;6.57;64.81
26697;BME280;14312;52.614;13.496;2023-03-04T02:34:22;100991.03;;;6.60;64.30
26697;BME280;14312;52.614;13.496;2023-03-04T02:37:09;100992.63;;;6.61;64.61
26697;BME280;14312;52.614;13.496;2023-03-04T02:39:55;100989.56;;;6.64;64.46
26697;BME280;14312;52.614;13.496;2023-03-04T02:42:43;100978.59;;;6.67;64.23
26697;BME280;14312;52.614;13.496;2023-03-04T02:45:41;100979.19;;;6.69;64.93
26697;BME280;14312;52.614;13.496;2023-03-04T02:48:28;100987.72;;;6.72;64.40
26697;BME280;14312;52.614;13.496;2023-03-04T02:51:14;100988.34;;;6.74;64.35
26697;BME280;14312;52.614;13.496;2023-03-04T02:54:00;100986.28;;;6.76;64.35
26697;BME280;14312;52.614;13.496;2023-03-04T02:56:48;100979.56;;;6.80;64.18
26697;BME280;14312;52.614;13.496;2023-03-04T02:59:35;100985.50;;;6.82;64.20
26697;BME280;14312;52.614;13.496;2023-03-04T03:02:21;100972.03;;;6.83;64.29
26697;BME280;14312;52.614;13.496;2023-03-04T03:05:07;100973.44;;;6.86;64.34
26697;BME280;14312;52.614;13.496;2023-03-04T03:07:53;100974.88;;;6.88;64.32
26697;BME280;14312;52.614;13.496;2023-03-04T03:10:39;100970.41;;;6.89;64.35
26697;BME280;14312;52.614;13.496;2023-03-04T03:13:25;100956.09;;;6.90;64.52
26697;BME280;14312;52.614;13.496;2023-03-04T03:16:11;100959.38;;;6.92;64.38
26697;BME280;14312;52.614;13.496;2023-03-04T03:18:58;100955.72;;;6.93;64.43
26697;BME280;14312;52.614;13.496;2023-03-04T03:21:43;100946.75;;;6.94;64.37
26697;BME280;14312;52.614;13.496;2023-03-04T03:24:29;100942.25;;;6.94;64.38
26697;BME280;14312;52.614;13.496;2023-03-04T03:27:15;100950.00;;;6.96;64.50
26697;BME280;14312;52.614;13.496;2023-03-04T03:30:03;100944.72;;;6.96;64.30
26697;BME280;14312;52.614;13.496;2023-03-04T03:32:49;100933.06;;;6.97;64.45
26697;BME280;14312;52.614;13.496;2023-03-04T03:35:35;100934.91;;;6.96;64.58
26697;BME280;14312;52.614;13.496;2023-03-04T03:38:21;100930.41;;;6.97;64.65
26697;BME280;14312;52.614;13.496;2023-03-04T03:41:06;100938.97;;;6.99;64.63
26697;BME280;14312;52.614;13.496;2023-03-04T03:43:52;100935.31;;;7.00;64.90
26697;BME280;14312;52.614;13.496;2023-03-04T03:46:38;100924.72;;;7.00;64.68
26697;BME280;14312;52.614;13.496;2023-03-04T03:49:24;100923.69;;;7.01;64.48
26697;BME280;14312;52.614;13.496;2023-03-04T03:52:10;100932.84;;;7.05;65.05
26697;BME280;14312;52.614;13.496;2023-03-04T03:54:57;100924.69;;;7.06;64.56
26697;BME280;14312;52.614;13.496;2023-03-04T03:57:46;100921.84;;;7.08;64.67
26697;BME280;14312;52.614;13.496;2023-03-04T04:00:32;100917.16;;;7.10;64.65
26697;BME280;14312;52.614;13.496;2023-03-04T04:03:18;100920.38;;;7.12;64.72
26697;BME280;14312;52.614;13.496;2023-03-04T04:06:04;100919.34;;;7.13;64.80
26697;BME280;14312;52.614;13.496;2023-03-04T04:08:51;100913.66;;;7.16;64.50
26697;BME280;14312;52.614;13.496;2023-03-04T04:11:37;100916.88;;;7.18;64.94
26697;BME280;14312;52.614;13.496;2023-03-04T04:14:23;100913.22;;;7.19;64.77
26697;BME280;14312;52.614;13.496;2023-03-04T04:17:09;100907.50;;;7.22;64.62
26697;BME280;14312;52.614;13.496;2023-03-04T04:19:55;100902.81;;;7.24;64.70
26697;BME280;14312;52.614;13.496;2023-03-04T04:22:41;100907.06;;;7.25;64.90
26697;BME280;14312;52.614;13.496;2023-03-04T04:25:27;100903.00;;;7.29;64.96
26697;BME280;14312;52.614;13.496;2023-03-04T04:28:13;100900.94;;;7.31;64.86
26697;BME280;14312;52.614;13.496;2023-03-04T04:30:59;100913.97;;;7.33;64.79
26697;BME280;14312;52.614;13.496;2023-03-04T04:33:45;100906.41;;;7.36;64.80
26697;BME280;14312;52.614;13.496;2023-03-04T04:36:31;100906.22;;;7.38;64.89
26697;BME280;14312;52.614;13.496;2023-03-04T04:39:17;100900.47;;;7.41;65.08
26697;BME280;14312;52.614;13.496;2023-03-04T04:42:03;100901.28;;;7.41;64.71
26697;BME280;14312;52.614;13.496;2023-03-04T04:44:49;100897.97;;;7.46;65.08
26697;BME280;14312;52.614;13.496;2023-03-04T04:47:37;100903.28;;;7.46;64.79
26697;BME280;14312;52.614;13.496;2023-03-04T04:50:24;100892.06;;;7.51;64.83
26697;BME280;14312;52.614;13.496;2023-03-04T04:53:11;100898.19;;;7.51;64.88
26697;BME280;14312;52.614;13.496;2023-03-04T04:55:58;100892.69;;;7.53;64.74
26697;BME280;14312;52.614;13.496;2023-03-04T04:58:45;100892.69;;;7.53;64.95
26697;BME280;14312;52.614;13.496;2023-03-04T05:01:32;100880.00;;;7.55;64.88
26697;BME280;14312;52.614;13.496;2023-03-04T05:04:18;100893.03;;;7.56;64.92
26697;BME280;14312;52.614;13.496;2023-03-04T05:07:04;100878.75;;;7.57;64.96
26697;BME280;14312;52.614;13.496;2023-03-04T05:09:50;100880.19;;;7.60;64.58
26697;BME280;14312;52.614;13.496;2023-03-04T05:12:36;100884.44;;;7.61;64.87
26697;BME280;14312;52.614;13.496;2023-03-04T05:15:22;100890.34;;;7.63;64.55
26697;BME280;14312;52.614;13.496;2023-03-04T05:18:08;100883.22;;;7.63;64.63
26697;BME280;14312;52.614;13.496;2023-03-04T05:20:56;100877.09;;;7.63;64.59
26697;BME280;14312;52.614;13.496;2023-03-04T05:23:43;100890.50;;;7.68;64.66
26697;BME280;14312;52.614;13.496;2023-03-04T05:26:29;100888.66;;;7.68;64.80
26697;BME280;14312;52.614;13.496;2023-03-04T05:29:15;100883.97;;;7.70;64.83
26697;BME280;14312;52.614;13.496;2023-03-04T05:32:01;100883.16;;;7.70;64.50
26697;BME280;14312;52.614;13.496;2023-03-04T05:34:47;100880.28;;;7.71;64.47
26697;BME280;14312;52.614;13.496;2023-03-04T05:37:33;100875.81;;;7.72;64.60
26697;BME280;14312;52.614;13.496;2023-03-04T05:40:19;100877.44;;;7.73;64.74
26697;BME280;14312;52.614;13.496;2023-03-04T05:43:05;100879.06;;;7.74;64.47
26697;BME280;14312;52.614;13.496;2023-03-04T05:45:51;100889.69;;;7.74;64.63
26697;BME280;14312;52.614;13.496;2023-03-04T05:48:37;100873.75;;;7.74;64.52
26697;BME280;14312;52.614;13.496;2023-03-04T05:51:23;100880.66;;;7.75;64.91
26697;BME280;14312;52.614;13.496;2023-03-04T05:54:09;100877.00;;;7.76;64.83
26697;BME280;14312;52.614;13.496;2023-03-04T05:56:55;100879.66;;;7.76;64.84
26697;BME280;14312;52.614;13.496;2023-03-04T05:59:41;100882.28;;;7.76;64.66
26697;BME280;14312;52.614;13.496;2023-03-04T06:02:27;100877.00;;;7.76;64.78
26697;BME280;14312;52.614;13.496;2023-03-04T06:05:13;100871.69;;;7.76;64.46
26697;BME280;14312;52.614;13.496;2023-03-04T06:07:59;100878.63;;;7.77;64.56
26697;BME280;14312;52.614;13.496;2023-03-04T06:10:45;100877.00;;;7.76;64.68
26697;BME280;14312;52.614;13.496;2023-03-04T06:13:32;100882.09;;;7.77;64.87
26697;BME280;14312;52.614;13.496;2023-03-04T06:16:18;100881.88;;;7.79;64.96
26697;BME280;14312;52.614;13.496;2023-03-04T06:19:04;100888.00;;;7.79;64.88
26697;BME280;14312;52.614;13.496;2023-03-04T06:21:50;100882.91;;;7.78;64.71
26697;BME280;14312;52.614;13.496;2023-03-04T06:24:36;100887.19;;;7.79;65.01
26697;BME280;14312;52.614;13.496;2023-03-04T06:27:22;100889.22;;;7.77;64.94
26697;BME280;14312;52.614;13.496;2023-03-04T06:30:08;100884.94;;;7.76;64.88
26697;BME280;14312;52.614;13.496;2023-03-04T06:32:55;100882.28;;;7.76;65.08
26697;BME280;14312;52.614;13.496;2023-03-04T06:35:41;100884.38;;;7.74;65.26
26697;BME280;14312;52.614;13.496;2023-03-04T06:38:28;100888.88;;;7.73;65.36
26697;BME280;14312;52.614;13.496;2023-03-04T06:41:14;100886.41;;;7.72;65.15
26697;BME280;14312;52.614;13.496;2023-03-04T06:44:02;100890.69;;;7.73;65.36
26697;BME280;14312;52.614;13.496;2023-03-04T06:46:48;100889.69;;;7.74;65.26
26697;BME280;14312;52.614;13.496;2023-03-04T06:49:34;100889.69;;;7.74;65.26
26697;BME280;14312;52.614;13.496;2023-03-04T06:52:20;100888.03;;;7.73;65.27
26697;BME280;14312;52.614;13.496;2023-03-04T06:55:07;100888.03;;;7.73;65.78
26697;BME280;14312;52.614;13.496;2023-03-04T06:57:53;100888.88;;;7.73;65.92
26697;BME280;14312;52.614;13.496;2023-03-04T07:00:39;100891.28;;;7.75;65.82
26697;BME280;14312;52.614;13.496;2023-03-04T07:03:25;100892.91;;;7.76;65.78
26697;BME280;14312;52.614;13.496;2023-03-04T07:06:12;100899.84;;;7.77;66.11
26697;BME280;14312;52.614;13.496;2023-03-04T07:08:59;100894.53;;;7.77;66.10
26697;BME280;14312;52.614;13.496;2023-03-04T07:11:45;100901.47;;;7.78;66.10
26697;BME280;14312;52.614;13.496;2023-03-04T07:14:31;100896.78;;;7.80;66.02
26697;BME280;14312;52.614;13.496;2023-03-04T07:17:17;100901.88;;;7.81;66.00
26697;BME280;14312;52.614;13.496;2023-03-04T07:20:03;100903.72;;;7.81;66.18
26697;BME280;14312;52.614;13.496;2023-03-04T07:22:49;100907.97;;;7.82;66.07
26697;BME280;14312;52.614;13.496;2023-03-04T07:25:35;100905.69;;;7.85;66.17
26697;BME280;14312;52.614;13.496;2023-03-04T07:28:21;100908.16;;;7.87;66.15
26697;BME280;14312;52.614;13.496;2023-03-04T07:31:09;100909.31;;;7.91;66.11
26697;BME280;14312;52.614;13.496;2023-03-04T07:33:57;100904.63;;;7.93;66.29
26697;BME280;14312;52.614;13.496;2023-03-04T07:36:44;100896.22;;;7.96;66.22
26697;BME280;14312;52.614;13.496;2023-03-04T07:39:30;100896.81;;;7.98;66.49
26697;BME280;14312;52.614;13.496;2023-03-04T07:42:16;100901.72;;;8.01;66.37
26697;BME280;14312;52.614;13.496;2023-03-04T07:45:03;100901.25;;;8.04;66.36
26697;BME280;14312;52.614;13.496;2023-03-04T07:47:50;100902.47;;;8.08;66.53
26697;BME280;14312;52.614;13.496;2023-03-04T07:50:36;100896.72;;;8.11;66.26
26697;BME280;14312;52.614;13.496;2023-03-04T07:53:22;100896.28;;;8.14;66.04
26697;BME280;14312;52.614;13.496;2023-03-04T07:56:11;100896.66;;;8.18;66.46
26697;BME280;14312;52.614;13.496;2023-03-04T07:58:58;100899.09;;;8.19;66.58
26697;BME280;14312;52.614;13.496;2023-03-04T08:01:45;100899.09;;;8.19;66.37
26697;BME280;14312;52.614;13.496;2023-03-04T08:04:31;100902.78;;;8.18;66.34
26697;BME280;14312;52.614;13.496;2023-03-04T08:07:16;100899.31;;;8.18;66.02
26697;BME280;14312;52.614;13.496;2023-03-04T08:10:03;100895.06;;;8.17;66.52
26697;BME280;14312;52.614;13.496;2023-03-04T08:12:49;100897.09;;;8.15;66.19
26697;BME280;14312;52.614;13.496;2023-03-04T08:15:39;100891.41;;;8.11;66.72
26697;BME280;14312;52.614;13.496;2023-03-04T08:18:25;100888.75;;;8.11;66.40
26697;BME280;14312;52.614;13.496;2023-03-04T08:21:12;100888.19;;;8.09;66.58
26697;BME280;14312;52.614;13.496;2023-03-04T08:23:59;100890.84;;;8.09;66.39
26697;BME280;14312;52.614;13.496;2023-03-04T08:26:48;100886.09;;;8.11;66.71
26697;BME280;14312;52.614;13.496;2023-03-04T08:29:35;100884.47;;;8.10;66.80
26697;BME280;14312;52.614;13.496;2023-03-04T08:32:20;100887.72;;;8.12;67.20
26697;BME280;14312;52.614;13.496;2023-03-04T08:35:06;100887.31;;;8.15;67.24
26697;BME280;14312;52.614;13.496;2023-03-04T08:37:52;100879.91;;;8.17;67.24
26697;BME280;14312;52.614;13.496;2023-03-04T08:40:38;100878.25;;;8.23;67.25
26697;BME280;14312;52.614;13.496;2023-03-04T08:43:26;100884.53;;;8.29;67.56
26697;BME280;14312;52.614;13.496;2023-03-04T08:46:11;100878.97;;;8.37;67.21
26697;BME280;14312;52.614;13.496;2023-03-04T08:48:57;100881.78;;;8.42;67.37
26697;BME280;14312;52.614;13.496;2023-03-04T08:51:43;100879.03;;;8.48;67.24
26697;BME280;14312;52.614;13.496;2023-03-04T08:54:29;100872.28;;;8.52;67.07
26697;BME280;14312;52.614;13.496;2023-03-04T08:57:15;100874.25;;;8.57;66.94
26697;BME280;14312;52.614;13.496;2023-03-04T09:00:02;100873.38;;;8.63;66.81
26697;BME280;14312;52.614;13.496;2023-03-04T09:02:48;100866.56;;;8.67;66.71
26697;BME280;14312;52.614;13.496;2023-03-04T09:05:34;100868.59;;;8.72;66.71
26697;BME280;14312;52.614;13.496;2023-03-04T09:08:21;100867.09;;;8.76;66.65
26697;BME280;14312;52.614;13.496;2023-03-04T09:11:07;100859.50;;;8.79;66.27
26697;BME280;14312;52.614;13.496;2023-03-04T09:13:53;100865.41;;;8.81;66.43
26697;BME280;14312;52.614;13.496;2023-03-04T09:16:39;100867.41;;;8.86;66.45
26697;BME280;14312;52.614;13.496;2023-03-04T09:19:25;100868.00;;;8.88;66.24
26697;BME280;14312;52.614;13.496;2023-03-04T09:22:12;100872.63;;;8.92;66.11
26697;BME280;14312;52.614;13.496;2023-03-04T09:24:59;100877.50;;;8.95;65.91
26697;BME280;14312;52.614;13.496;2023-03-04T09:27:45;100874.41;;;8.98;65.88
26697;BME280;14312;52.614;13.496;2023-03-04T09:30:31;100884.59;;;9.01;65.65
26697;BME280;14312;52.614;13.496;2023-03-04T09:33:17;100872.47;;;9.06;65.45
26697;BME280;14312;52.614;13.496;2023-03-04T09:36:03;100879.75;;;9.10;65.33
26697;BME280;14312;52.614;13.496;2023-03-04T09:38:50;100873.19;;;9.13;65.19
26697;BME280;14312;52.614;13.496;2023-03-04T09:41:42;100876.44;;;9.15;64.52
26697;BME280;14312;52.614;13.496;2023-03-04T09:44:29;100888.25;;;9.19;64.63
26697;BME280;14312;52.614;13.496;2023-03-04T09:47:18;100882.50;;;9.22;64.43
26697;BME280;14312;52.614;13.496;2023-03-04T09:50:08;100879.84;;;9.22;64.13
26697;BME280;14312;52.614;13.496;2023-03-04T09:53:20;100881.13;;;9.31;63.04
26697;BME280;14312;52.614;13.496;2023-03-04T09:56:09;100886.00;;;9.34;63.85
26697;BME280;14312;52.614;13.496;2023-03-04T09:59:04;100894.94;;;9.39;63.67
26697;BME280;14312;52.614;13.496;2023-03-04T10:02:06;100899.13;;;9.47;62.87
26697;BME280;14312;52.614;13.496;2023-03-04T10:04:59;100891.50;;;9.51;62.95
26697;BME280;14312;52.614;13.496;2023-03-04T10:07:55;100887.13;;;9.56;62.74
26697;BME280;14312;52.614;13.496;2023-03-04T10:10:43;100893.75;;;9.65;62.63
26697;BME280;14312;52.614;13.496;2023-03-04T10:16:41;100898.41;;;9.81;61.35
26697;BME280;14312;52.614;13.496;2023-03-04T10:22:40;100887.53;;;9.95;60.50
26697;BME280;14312;52.614;13.496;2023-03-04T10:25:29;100883.41;;;9.99;60.94
26697;BME280;14312;52.614;13.496;2023-03-04T10:28:18;100897.41;;;10.06;61.04
26697;BME280;14312;52.614;13.496;2023-03-04T10:31:10;100890.72;;;10.15;60.30
26697;BME280;14312;52.614;13.496;2023-03-04T10:33:58;100889.22;;;10.19;60.43
26697;BME280;14312;52.614;13.496;2023-03-04T10:37:00;100882.53;;;10.28;59.17
26697;BME280;14312;52.614;13.496;2023-03-04T10:39:48;100882.63;;;10.33;60.07
26697;BME280;14312;52.614;13.496;2023-03-04T10:42:35;100881.72;;;10.39;59.69
26697;BME280;14312;52.614;13.496;2023-03-04T10:45:26;100891.69;;;10.44;59.20
26697;BME280;14312;52.614;13.496;2023-03-04T10:48:23;100881.13;;;10.49;59.27
26697;BME280;14312;52.614;13.496;2023-03-04T10:54:07;100887.84;;;10.51;58.43
26697;BME280;14312;52.614;13.496;2023-03-04T10:57:03;100887.84;;;10.51;57.76
26697;BME280;14312;52.614;13.496;2023-03-04T10:59:57;100883.09;;;10.53;57.24
26697;BME280;14312;52.614;13.496;2023-03-04T11:02:44;100894.34;;;10.55;58.53
26697;BME280;14312;52.614;13.496;2023-03-04T11:05:31;100909.88;;;10.58;58.19
26697;BME280;14312;52.614;13.496;2023-03-04T11:08:20;100893.38;;;10.62;58.05
26697;BME280;14312;52.614;13.496;2023-03-04T11:11:21;100891.31;;;10.64;57.21
26697;BME280;14312;52.614;13.496;2023-03-04T11:14:33;100882.28;;;10.65;56.50
26697;BME280;14312;52.614;13.496;2023-03-04T11:17:23;100888.88;;;10.62;57.42
26697;BME280;14312;52.614;13.496;2023-03-04T11:20:22;100891.91;;;10.66;57.23
26697;BME280;14312;52.614;13.496;2023-03-04T11:23:30;100891.78;;;10.72;57.64
26697;BME280;14312;52.614;13.496;2023-03-04T11:26:39;100892.09;;;10.76;56.16
26697;BME280;14312;52.614;13.496;2023-03-04T11:29:51;100894.75;;;10.76;56.08
26697;BME280;14312;52.614;13.496;2023-03-04T11:32:43;100891.50;;;10.74;56.61
26697;BME280;14312;52.614;13.496;2023-03-04T11:35:41;100895.25;;;10.73;56.28
26697;BME280;14312;52.614;13.496;2023-03-04T11:38:38;100894.88;;;10.69;56.13
26697;BME280;14312;52.614;13.496;2023-03-04T11:41:41;100890.03;;;10.66;55.83
26697;BME280;14312;52.614;13.496;2023-03-04T11:44:30;100906.00;;;10.66;56.59
26697;BME280;14312;52.614;13.496;2023-03-04T11:47:21;100903.59;;;10.65;56.49
26697;BME280;14312;52.614;13.496;2023-03-04T12:02:15;100901.75;;;10.65;56.04
26697;BME280;14312;52.614;13.496;2023-03-04T12:11:41;100890.13;;;10.83;54.13
26697;BME280;14312;52.614;13.496;2023-03-04T12:14:47;100889.16;;;10.89;54.55
26697;BME280;14312;52.614;13.496;2023-03-04T12:23:52;100894.50;;;10.89;55.30
26697;BME280;14312;52.614;13.496;2023-03-04T12:26:48;100889.66;;;10.86;54.86
26697;BME280;14312;52.614;13.496;2023-03-04T12:35:46;100889.44;;;10.76;55.29
26697;BME280;14312;52.614;13.496;2023-03-04T12:39:39;100893.38;;;10.73;54.58
26697;BME280;14312;52.614;13.496;2023-03-04T12:45:26;100895.03;;;10.63;53.85
26697;BME280;14312;52.614;13.496;2023-03-04T12:48:31;100887.38;;;10.54;54.57
26697;BME280;14312;52.614;13.496;2023-03-04T12:51:29;100894.44;;;10.49;54.92
26697;BME280;14312;52.614;13.496;2023-03-04T12:54:25;100890.88;;;10.43;54.82
26697;BME280;14312;52.614;13.496;2023-03-04T12:57:17;100894.69;;;10.36;54.70
26697;BME280;14312;52.614;13.496;2023-03-04T13:00:21;100891.34;;;10.29;54.58
26697;BME280;14312;52.614;13.496;2023-03-04T13:09:27;100894.97;;;10.16;54.38
26697;BME280;14312;52.614;13.496;2023-03-04T13:12:19;100897.09;;;10.14;55.20
26697;BME280;14312;52.614;13.496;2023-03-04T13:17:53;100893.84;;;10.12;55.12
26697;BME280;14312;52.614;13.496;2023-03-04T13:20:40;100887.91;;;10.10;54.80
26697;BME280;14312;52.614;13.496;2023-03-04T13:23:27;100902.25;;;10.09;54.61
26697;BME280;14312;52.614;13.496;2023-03-04T13:26:22;100900.09;;;10.06;54.12
26697;BME280;14312;52.614;13.496;2023-03-04T13:31:59;100905.84;;;10.03;54.43
26697;BME280;14312;52.614;13.496;2023-03-04T13:34:50;100890.34;;;10.00;54.21
26697;BME280;14312;52.614;13.496;2023-03-04T13:37:55;100907.94;;;10.01;53.44
26697;BME280;14312;52.614;13.496;2023-03-04T13:40:42;100894.63;;;10.01;54.58
26697;BME280;14312;52.614;13.496;2023-03-04T13:43:42;100901.00;;;10.00;53.47
26697;BME280;14312;52.614;13.496;2023-03-04T13:46:41;100900.19;;;9.99;53.34
26697;BME280;14312;52.614;13.496;2023-03-04T13:49:27;100899.38;;;9.99;54.78
26697;BME280;14312;52.614;13.496;2023-03-04T13:52:50;100899.16;;;10.00;54.31
26697;BME280;14312;52.614;13.496;2023-03-04T13:55:39;100890.81;;;9.97;54.60
26697;BME280;14312;52.614;13.496;2023-03-04T13:58:28;100901.44;;;9.97;54.83
26697;BME280;14312;52.614;13.496;2023-03-04T14:01:29;100896.13;;;9.97;54.42
26697;BME280;14312;52.614;13.496;2023-03-04T14:04:21;100892.88;;;9.95;54.95
26697;BME280;14312;52.614;13.496;2023-03-04T14:07:18;100894.97;;;9.93;53.48
26697;BME280;14312;52.614;13.496;2023-03-04T14:12:56;100890.09;;;9.90;54.30
26697;BME280;14312;52.614;13.496;2023-03-04T14:15:53;100885.25;;;9.87;53.94
26697;BME280;14312;52.614;13.496;2023-03-04T14:18:39;100895.88;;;9.87;54.75
26697;BME280;14312;52.614;13.496;2023-03-04T14:21:25;100883.63;;;9.86;54.70
26697;BME280;14312;52.614;13.496;2023-03-04T14:24:15;100889.75;;;9.86;54.55
26697;BME280;14312;52.614;13.496;2023-03-04T14:27:20;100888.47;;;9.89;53.94
26697;BME280;14312;52.614;13.496;2023-03-04T14:30:17;100883.16;;;9.89;54.58
26697;BME280;14312;52.614;13.496;2023-03-04T14:33:07;100884.78;;;9.90;54.43
26697;BME280;14312;52.614;13.496;2023-03-04T14:35:56;100888.47;;;9.89;54.21
26697;BME280;14312;52.614;13.496;2023-03-04T14:38:44;100886.84;;;9.88;54.20
26697;BME280;14312;52.614;13.496;2023-03-04T14:41:40;100883.63;;;9.86;53.46
26697;BME280;14312;52.614;13.496;2023-03-04T14:44:34;100882.00;;;9.85;54.03
26697;BME280;14312;52.614;13.496;2023-03-04T14:50:17;100884.97;;;9.76;54.15
26697;BME280;14312;52.614;13.496;2023-03-04T14:56:06;100876.50;;;9.68;53.60
26697;BME280;14312;52.614;13.496;2023-03-04T14:58:55;100883.56;;;9.62;53.97
26697;BME280;14312;52.614;13.496;2023-03-04T15:01:42;100887.72;;;9.58;54.13
26697;BME280;14312;52.614;13.496;2023-03-04T15:04:30;100876.94;;;9.53;54.15
26697;BME280;14312;52.614;13.496;2023-03-04T15:07:28;100870.22;;;9.51;54.20
26697;BME280;14312;52.614;13.496;2023-03-04T15:10:20;100877.03;;;9.47;54.11
26697;BME280;14312;52.614;13.496;2023-03-04T15:13:08;100871.94;;;9.45;54.20
26697;BME280;14312;52.614;13.496;2023-03-04T15:16:00;100877.72;;;9.42;54.16
26697;BME280;14312;52.614;13.496;2023-03-04T15:21:46;100873.66;;;9.39;54.84
26697;BME280;14312;52.614;13.496;2023-03-04T15:24:32;100876.47;;;9.45;54.90
26697;BME280;14312;52.614;13.496;2023-03-04T15:27:20;100873.13;;;9.49;54.48
26697;BME280;14312;52.614;13.496;2023-03-04T15:30:22;100870.56;;;9.54;54.07
26697;BME280;14312;52.614;13.496;2023-03-04T15:33:11;100870.13;;;9.57;54.34
26697;BME280;14312;52.614;13.496;2023-03-04T15:35:59;100871.66;;;9.65;54.55
26697;BME280;14312;52.614;13.496;2023-03-04T15:38:49;100870.84;;;9.76;54.66
26697;BME280;14312;52.614;13.496;2023-03-04T15:41:36;100873.53;;;9.88;54.21
26697;BME280;14312;52.614;13.496;2023-03-04T15:44:22;100866.50;;;9.93;53.81
26697;BME280;14312;52.614;13.496;2023-03-04T15:47:09;100870.09;;;9.99;53.72
26697;BME280;14312;52.614;13.496;2023-03-04T15:49:57;100865.00;;;9.97;53.61